Fuelanlegget er i drift igjen PDF Skriv ut E-post
Skrevet av Carl Jæger   
tirsdag 15. desember 2009 12:19
Det meldes at fuelanlegget nå er klart til bruk.
 
Fuelsituasjonen, forhåpentligvis den siste... PDF Skriv ut E-post
Skrevet av Per Norgaard   
mandag 14. desember 2009 19:39

Begge flyene har blitt fylt opp idag med jerrykanner.

Ellers sier Shell i ettermiddag at anlegget er planlagt åpnet imorgen, men følg med på aktuell Notam. Vi får håpe at denne vanskelige perioden nå er over.

Per

 

Sist oppdatert mandag 14. desember 2009 22:53
 
«StartForrige4142434445464748NesteSiste»

Side 48 av 48
 
METAR
2017/08/22 23:50 ENCN 222350Z AUTO 05005KT 9999 SCT110/// BKN200/// 09/09 Q1020
TAF
2017/08/22 18:37 TAF ENCN 221700Z 2218/2221 21008KT 9999 FEW040
LN-KFK
Operativ VFR-natt
VFR dag
05:22 - 21:37
Brannvakt
Inaktiv
Banner
Banner
Banner
Banner
Banner